Bookmark and Share
Track history (hours):
 

Swinomish

More information available from US FCC via Universal Licensing System and Coast Guard Vessel Documentation Center.

Last reported at 2014-Apr-24 10:20 UTC. Time now 2014-Apr-24 11:22 UTC.
Position N 48°06' W 122°45'.

Length 15 m; draft 3.5 m.

Type: Tug. MMSI: 366972050.

NotesDate/timePositionNaut miles runAvg speedWind from/ knotsBaromVisibWave heightAir tempDewpointWater temp
2014-Apr-24 10:20N 48°06' W 122°45'8 7.2
2014-Apr-24 09:14N 48°01' W 122°36'5 7.7
2014-Apr-24 08:33N 47°57' W 122°31'7 6.6
2014-Apr-24 07:33N 47°54' W 122°23'6 5.9
2014-Apr-24 06:33N 47°58' W 122°17'2 1.8
2014-Apr-24 05:14N 47°59' W 122°13'0 0.0
2014-Apr-24 04:33N 47°59' W 122°13'0 0.0
2014-Apr-24 03:33N 47°59' W 122°13'0 0.0
2014-Apr-24 02:33N 47°59' W 122°13'5 4.9
2014-Apr-24 01:33N 47°57' W 122°20'1211.7
2014-Apr-24 00:33N 47°46' W 122°25'1212.0
2014-Apr-23 23:33N 47°34' W 122°27'1212.2
2014-Apr-23 22:33N 47°22' W 122°32'1211.7
2014-Apr-23 21:33N 47°11' W 122°39'8 1.0
2014-Apr-23 14:09N 47°11' W 122°50'2 0.6
2014-Apr-23 11:14N 47°10' W 122°48'0 0.6
2014-Apr-23 10:32N 47°10' W 122°48'2 0.8
2014-Apr-23 08:11N 47°10' W 122°45'1 1.2
2014-Apr-23 07:33N 47°10' W 122°45'3 1.5
2014-Apr-23 05:33N 47°11' W 122°40'2 1.6
2014-Apr-23 04:33N 47°12' W 122°38'2 2.3
2014-Apr-23 03:33N 47°13' W 122°35'4 3.9
2014-Apr-23 02:33N 47°17' W 122°32'2 2.2
2014-Apr-23 01:33N 47°19' W 122°33'1 0.9
2014-Apr-23 00:33N 47°19' W 122°32'2 1.5
2014-Apr-22 23:33N 47°18' W 122°30'1 1.2
2014-Apr-22 22:33N 47°18' W 122°29'1 1.1
2014-Apr-22 21:33N 47°17' W 122°27'1 0.5
2014-Apr-22 20:33N 47°17' W 122°28'1 0.8
2014-Apr-22 19:33N 47°18' W 122°29'1 0.7
2014-Apr-22 18:33N 47°18' W 122°30'1 1.1
2014-Apr-22 17:33N 47°19' W 122°29'2 2.2
2014-Apr-22 16:33N 47°21' W 122°27'2 1.9
2014-Apr-22 15:33N 47°22' W 122°25'2 1.8
2014-Apr-22 14:33N 47°23' W 122°23'1 1.3
2014-Apr-22 13:33N 47°24' W 122°23'2 1.6
2014-Apr-22 12:33N 47°25' W 122°24'2 1.6
2014-Apr-22 11:33N 47°27' W 122°25'1 1.3
2014-Apr-22 10:33N 47°28' W 122°26'1 1.1
2014-Apr-22 09:33N 47°29' W 122°26'1 1.3
2014-Apr-22 08:33N 47°30' W 122°27'1 1.4
2014-Apr-22 07:33N 47°32' W 122°28'1 1.5
2014-Apr-22 06:33N 47°33' W 122°28'2 1.7
2014-Apr-22 05:33N 47°35' W 122°28'2 1.8
2014-Apr-22 04:33N 47°37' W 122°29'2 2.0
2014-Apr-22 03:33N 47°39' W 122°29'2 1.8
2014-Apr-22 02:33N 47°40' W 122°30'2 1.8
2014-Apr-22 01:33N 47°42' W 122°29'2 1.8
2014-Apr-22 00:33N 47°44' W 122°28'2 2.2
2014-Apr-21 23:33N 47°46' W 122°28'2 1.6
2014-Apr-21 22:33N 47°47' W 122°26'1 0.9
2014-Apr-21 21:33N 47°48' W 122°25'1 0.9
2014-Apr-21 20:33N 47°49' W 122°24'2 1.8
2014-Apr-21 19:33N 47°50' W 122°23'2 2.0
2014-Apr-21 18:33N 47°52' W 122°21'2 2.3
2014-Apr-21 17:33N 47°54' W 122°21'2 2.3
2014-Apr-21 16:33N 47°56' W 122°20'2 2.0
2014-Apr-21 15:32N 47°58' W 122°18'2 1.9
2014-Apr-21 14:33N 47°58' W 122°15'0 0.1
2014-Apr-21 13:33N 47°59' W 122°15'2 1.7
2014-Apr-21 12:33N 47°60' W 122°16'2 2.0
2014-Apr-21 11:31N 48°01' W 122°18'2 1.7
2014-Apr-21 10:28N 48°02' W 122°21'2 2.1
2014-Apr-21 09:33N 48°03' W 122°23'2 1.7
2014-Apr-21 08:33N 48°04' W 122°25'2 1.9
2014-Apr-21 07:33N 48°05' W 122°28'4 1.6
2014-Apr-21 05:14N 48°08' W 122°31'2 1.0
2014-Apr-21 03:32N 48°09' W 122°32'6 1.1
2014-Apr-20 22:09N 48°15' W 122°33'2 2.5
2014-Apr-20 21:32N 48°16' W 122°31'3 2.6
2014-Apr-20 20:32N 48°19' W 122°30'2 2.0
2014-Apr-20 19:28N 48°20' W 122°32'1 1.4
2014-Apr-20 18:31N 48°21' W 122°33'1 1.2
2014-Apr-20 17:33N 48°22' W 122°32'0 0.0
2014-Apr-20 15:23N 48°22' W 122°32'2 0.9
2014-Apr-20 13:32N 48°23' W 122°30'1 0.8
2014-Apr-20 12:33N 48°24' W 122°30'0 0.0
2014-Apr-20 11:33N 48°24' W 122°30'0 0.0
2014-Apr-20 10:33N 48°24' W 122°30'0 0.0
2014-Apr-20 09:33N 48°24' W 122°30'0 0.0
2014-Apr-20 08:33N 48°24' W 122°30'0 0.0
2014-Apr-20 07:33N 48°24' W 122°30'0 0.0
2014-Apr-20 06:33N 48°24' W 122°30'0 0.0
2014-Apr-20 05:33N 48°24' W 122°30'0 0.0
2014-Apr-20 04:33N 48°24' W 122°30'0 0.0
2014-Apr-20 03:31N 48°24' W 122°30'0 0.0
2014-Apr-20 02:32N 48°24' W 122°30'0 0.0
2014-Apr-20 01:33N 48°24' W 122°30'0 0.0
2014-Apr-20 00:30N 48°24' W 122°30'0 0.0
2014-Apr-19 23:32N 48°24' W 122°30'0 0.0
2014-Apr-19 22:31N 48°24' W 122°30'0 0.0
2014-Apr-19 21:33N 48°24' W 122°30'0 0.0
2014-Apr-19 20:33N 48°24' W 122°30'0 0.0
2014-Apr-19 19:33N 48°24' W 122°30'0 0.0
2014-Apr-19 18:33N 48°24' W 122°30'0 0.0
2014-Apr-19 17:30N 48°24' W 122°30'0 0.0
2014-Apr-19 16:27N 48°24' W 122°30'4 3.4
2014-Apr-19 15:20N 48°21' W 122°33'910.2
2014-Apr-19 14:27N 48°12' W 122°34'1011.0
2014-Apr-19 13:33N 48°04' W 122°25'8 8.2
2014-Apr-19 12:33N 47°59' W 122°15'6 5.9
2014-Apr-19 11:33N 47°55' W 122°21'7 6.8
2014-Apr-19 10:33N 47°55' W 122°31'14 6.7
2014-Apr-19 08:24N 48°06' W 122°45'2 0.7
2014-Apr-19 06:16N 48°07' W 122°43'7 6.3
2014-Apr-19 05:14N 48°02' W 122°37'5 7.4
2014-Apr-19 04:33N 47°57' W 122°33'7 7.4
2014-Apr-19 03:33N 47°53' W 122°24'7 6.7
2014-Apr-19 02:33N 47°58' W 122°17'2 2.2
2014-Apr-19 01:33N 47°59' W 122°14'1 0.7
2014-Apr-19 00:33N 47°59' W 122°13'0 0.0
2014-Apr-18 23:33N 47°59' W 122°13'0 0.0
2014-Apr-18 22:33N 47°59' W 122°13'0 0.3
2014-Apr-18 21:33N 47°59' W 122°13'2 2.4
2014-Apr-18 20:33N 47°58' W 122°17'3 2.8
2014-Apr-18 19:33N 47°56' W 122°19'2 2.4
2014-Apr-18 18:33N 47°53' W 122°20'2 2.3
2014-Apr-18 17:33N 47°52' W 122°23'4 3.6
2014-Apr-18 16:33N 47°48' W 122°25'4 4.3
2014-Apr-18 15:33N 47°44' W 122°26'4 3.7
2014-Apr-18 14:33N 47°41' W 122°29'4 3.7
2014-Apr-18 13:33N 47°38' W 122°29'3 3.2
2014-Apr-18 12:33N 47°34' W 122°28'3 3.3
2014-Apr-18 11:33N 47°31' W 122°29'4 3.7
2014-Apr-18 10:29N 47°27' W 122°31'4 4.0
2014-Apr-18 09:32N 47°24' W 122°32'5 4.8
2014-Apr-18 08:33N 47°19' W 122°33'6 5.1
2014-Apr-18 07:25N 47°14' W 122°35'8 3.9
2014-Apr-18 05:16N 47°10' W 122°46'8 2.6
2014-Apr-18 02:12N 47°04' W 122°55'1 0.7
2014-Apr-18 00:07N 47°06' W 122°55'6 1.0
2014-Apr-17 18:11N 47°09' W 122°48'2 0.6
2014-Apr-17 15:30N 47°10' W 122°45'1 1.1
2014-Apr-17 14:33N 47°11' W 122°44'3 1.5
2014-Apr-17 12:31N 47°11' W 122°40'2 1.8
2014-Apr-17 11:33N 47°12' W 122°38'3 3.1
2014-Apr-17 10:33N 47°14' W 122°35'4 3.8
2014-Apr-17 09:33N 47°18' W 122°33'2 1.5
2014-Apr-17 08:33N 47°19' W 122°33'2 1.9
2014-Apr-17 07:33N 47°18' W 122°30'1 1.0
2014-Apr-17 06:33N 47°18' W 122°29'0 0.2
2014-Apr-17 05:32N 47°18' W 122°29'0 0.2
2014-Apr-17 04:33N 47°18' W 122°29'1 1.1
2014-Apr-17 03:33N 47°17' W 122°28'1 1.1
2014-Apr-17 02:33N 47°17' W 122°27'1 1.0
2014-Apr-17 01:33N 47°17' W 122°25'0 0.2
2014-Apr-17 00:32N 47°17' W 122°25'0 0.0
2014-Apr-16 23:33N 47°17' W 122°25'0 0.0
2014-Apr-16 22:33N 47°17' W 122°25'0 0.0
2014-Apr-16 21:33N 47°17' W 122°25'3 2.8
2014-Apr-16 20:33N 47°20' W 122°24'9 9.0
2014-Apr-16 19:33N 47°29' W 122°26'1010.0
2014-Apr-16 18:33N 47°39' W 122°29'8 8.2
2014-Apr-16 17:33N 47°47' W 122°25'9 9.2
2014-Apr-16 16:33N 47°55' W 122°20'6 5.8
2014-Apr-16 15:33N 47°59' W 122°13'0 0.0
2014-Apr-16 14:33N 47°59' W 122°13'0 0.0
2014-Apr-16 13:33N 47°59' W 122°13'0 0.0
2014-Apr-16 12:33N 47°59' W 122°13'0 0.0
2014-Apr-16 11:33N 47°59' W 122°13'0 0.0
2014-Apr-16 10:33N 47°59' W 122°13'0 0.0
2014-Apr-16 09:33N 47°59' W 122°13'0 0.0
2014-Apr-16 08:33N 47°59' W 122°13'0 0.0
2014-Apr-16 07:33N 47°59' W 122°13'0 0.0
2014-Apr-16 06:33N 47°59' W 122°13'0 0.0
2014-Apr-16 05:33N 47°59' W 122°13'0 0.0
2014-Apr-16 04:33N 47°59' W 122°13'0 0.0
2014-Apr-16 03:33N 47°59' W 122°13'0 0.0
2014-Apr-16 02:33N 47°59' W 122°13'0 0.0
2014-Apr-16 01:33N 47°59' W 122°13'0 0.0
2014-Apr-16 00:33N 47°59' W 122°13'0 0.0
2014-Apr-15 23:29N 47°59' W 122°13'0 0.0
2014-Apr-15 22:33N 47°59' W 122°13'9 9.2
2014-Apr-15 21:33N 47°52' W 122°23'1111.4
2014-Apr-15 20:33N 47°41' W 122°27'1111.3
2014-Apr-15 19:34N 47°30' W 122°25'10 9.8
2014-Apr-15 18:34N 47°20' W 122°25'3 2.8
2014-Apr-15 17:33N 47°17' W 122°25'1 1.4
2014-Apr-15 16:33N 47°18' W 122°27'1 1.4
2014-Apr-15 15:34N 47°19' W 122°26'1 1.2
2014-Apr-15 14:34N 47°20' W 122°25'2 0.8
2014-Apr-15 12:34N 47°21' W 122°23'2 1.7
2014-Apr-15 11:34N 47°22' W 122°22'2 2.1
2014-Apr-15 10:34N 47°24' W 122°23'2 2.0
2014-Apr-15 09:34N 47°26' W 122°25'2 2.2
2014-Apr-15 08:34N 47°28' W 122°26'2 1.9
2014-Apr-15 07:34N 47°30' W 122°27'2 1.8
2014-Apr-15 06:34N 47°32' W 122°27'2 1.9
2014-Apr-15 05:34N 47°33' W 122°28'3 1.6
2014-Apr-15 03:34N 47°37' W 122°29'1 1.5
2014-Apr-15 02:34N 47°38' W 122°29'1 1.5
2014-Apr-15 01:34N 47°40' W 122°29'1 1.3
2014-Apr-15 00:34N 47°41' W 122°29'2 1.5
2014-Apr-14 23:34N 47°42' W 122°30'2 2.4
2014-Apr-14 22:34N 47°45' W 122°28'3 2.6
2014-Apr-14 21:34N 47°47' W 122°26'2 2.1
2014-Apr-14 20:34N 47°49' W 122°25'2 1.6
2014-Apr-14 19:34N 47°50' W 122°23'2 1.7
2014-Apr-14 18:34N 47°51' W 122°22'2 1.8
2014-Apr-14 17:34N 47°53' W 122°21'2 2.3
2014-Apr-14 16:34N 47°55' W 122°20'2 2.4
2014-Apr-14 15:34N 47°58' W 122°19'3 1.5
2014-Apr-14 13:34N 47°58' W 122°14'0 0.0
2014-Apr-14 11:32N 47°58' W 122°14'1 1.5
2014-Apr-14 10:33N 47°59' W 122°16'  

Dump ship's entire track history

sailing weather and tide predictions

Swinomish — WC5223 — position and weather